Time;durP1;ratioP1;P1;durP2;ratioP2;P2;SDS_P1;SDS_P2;PMS_P1;PMS_P2;Temp;Humidity;BMP_temperature;BMP_pressure;BME280_temperature;BME280_humidity;BME280_pressure;Samples;Min_cycle;Max_cycle;Signal;HPM_P1;HPM_P2
2021/03/21 00:02:00;;;;;;;8.75;4.37;;;;;;;-0.29;69.71;100808.14;1769361;79;21142;-72
2021/03/21 00:04:26;;;;;;;9.58;4.15;;;;;;;-0.29;69.70;100806.84;1775181;79;21189;-72
2021/03/21 00:06:52;;;;;;;12.47;4.97;;;;;;;-0.30;69.70;100797.28;1798815;79;21642;-72
2021/03/21 00:09:19;;;;;;;10.70;4.33;;;;;;;-0.28;69.70;100796.74;1774163;79;21138;-72
2021/03/21 00:11:45;;;;;;;7.65;4.15;;;;;;;-0.28;69.67;100798.05;1767131;81;21559;-72
2021/03/21 00:14:11;;;;;;;10.13;4.90;;;;;;;-0.28;69.66;100783.64;1781566;79;21159;-72
2021/03/21 00:16:38;;;;;;;10.63;4.33;;;;;;;-0.28;69.66;100778.40;1798236;79;21187;-72
2021/03/21 00:19:05;;;;;;;10.00;4.42;;;;;;;-0.27;69.64;100773.52;1796049;79;21171;-72
2021/03/21 00:21:31;;;;;;;9.28;5.40;;;;;;;-0.26;69.62;100764.72;1789656;79;21131;-72
2021/03/21 00:23:57;;;;;;;9.73;4.30;;;;;;;-0.25;69.60;100759.87;1767061;81;21131;-72
2021/03/21 00:26:24;;;;;;;13.28;5.22;;;;;;;-0.24;69.57;100745.80;1777142;79;21926;-72
2021/03/21 00:28:50;;;;;;;8.13;4.78;;;;;;;-0.25;69.56;100746.77;1797006;78;22161;-71
2021/03/21 00:31:16;;;;;;;8.40;4.42;;;;;;;-0.25;69.55;100750.23;1766965;81;21181;-72
2021/03/21 00:33:44;;;;;;;10.10;4.58;;;;;;;-0.26;69.51;100737.21;1768520;79;21146;-71
2021/03/21 00:36:13;;;;;;;6.87;4.22;;;;;;;-0.25;69.50;100736.28;1767283;81;22241;-72
2021/03/21 00:38:45;;;;;;;13.85;4.80;;;;;;;-0.26;69.50;100726.73;1768888;79;21158;-71
2021/03/21 00:41:13;;;;;;;9.55;4.90;;;;;;;-0.27;69.46;100721.11;1767291;79;21182;-71
2021/03/21 00:43:39;;;;;;;10.05;4.33;;;;;;;-0.26;69.47;100716.25;1767193;79;21455;-71
2021/03/21 00:46:07;;;;;;;23.75;11.05;;;;;;;-0.26;69.44;100714.94;1772842;79;21209;-71
2021/03/21 00:48:38;;;;;;;10.32;4.87;;;;;;;-0.26;69.41;100712.31;1795979;79;21154;-72
2021/03/21 00:51:04;;;;;;;10.90;5.12;;;;;;;-0.25;69.42;100704.84;1769138;79;22206;-72
2021/03/21 00:53:31;;;;;;;13.08;5.30;;;;;;;-0.24;69.42;100689.00;1765857;80;21206;-72
2021/03/21 00:55:57;;;;;;;8.55;5.20;;;;;;;-0.24;69.40;100686.84;1801068;78;21151;-72
2021/03/21 00:58:24;;;;;;;10.35;5.53;;;;;;;-0.24;69.39;100678.52;1758170;78;21500;-72
2021/03/21 01:00:54;;;;;;;11.25;5.40;;;;;;;-0.25;69.41;100669.00;1787621;78;21144;-72
2021/03/21 01:03:20;;;;;;;8.15;5.25;;;;;;;-0.24;69.36;100656.72;1755230;81;21727;-72
2021/03/21 01:05:54;;;;;;;13.32;5.22;;;;;;;-0.24;69.38;100659.33;1788047;80;21171;-72
2021/03/21 01:08:28;;;;;;;11.22;5.45;;;;;;;-0.24;69.40;100655.41;1793619;79;21613;-72
2021/03/21 01:11:05;;;;;;;8.05;5.08;;;;;;;-0.23;69.39;100661.03;1801557;79;21105;-72
2021/03/21 01:13:49;;;;;;;10.82;5.28;;;;;;;-0.19;69.40;100646.34;1808160;78;22718;-72
2021/03/21 01:16:32;;;;;;;10.50;5.90;;;;;;;-0.24;69.39;100640.53;1764658;81;21212;-72
2021/03/21 01:18:59;;;;;;;10.80;4.85;;;;;;;-0.23;69.42;100633.52;1782608;79;22059;-72
2021/03/21 01:21:28;;;;;;;11.25;5.87;;;;;;;-0.23;69.41;100626.97;1765185;79;21154;-72
2021/03/21 01:23:54;;;;;;;8.53;5.17;;;;;;;-0.22;69.40;100623.42;1780389;79;21143;-72
2021/03/21 01:26:22;;;;;;;10.88;5.55;;;;;;;-0.23;69.44;100612.09;1764570;79;21150;-72
2021/03/21 01:28:48;;;;;;;8.53;5.28;;;;;;;-0.22;69.41;100609.00;1766460;79;21116;-72
2021/03/21 01:31:18;;;;;;;10.25;5.45;;;;;;;-0.21;69.43;100609.38;1795675;79;21261;-72
2021/03/21 01:33:45;;;;;;;11.08;6.17;;;;;;;-0.21;69.43;100599.72;1796055;79;21168;-71
2021/03/21 01:36:15;;;;;;;9.73;5.95;;;;;;;-0.21;69.46;100609.38;1788741;79;21041;-72
2021/03/21 01:38:42;;;;;;;15.53;5.85;;;;;;;-0.20;69.46;100596.63;1787815;78;21282;-71
2021/03/21 01:41:15;;;;;;;12.58;5.60;;;;;;;-0.22;69.45;100593.28;1787979;80;21160;-71
2021/03/21 01:43:42;;;;;;;13.62;6.95;;;;;;;-0.22;69.46;100584.11;1787872;80;22286;-72
2021/03/21 01:46:08;;;;;;;12.18;5.83;;;;;;;-0.25;69.49;100581.69;1744130;82;21172;-72
2021/03/21 01:48:47;;;;;;;9.20;6.42;;;;;;;-0.27;69.52;100581.77;1744996;80;21149;-72
2021/03/21 01:51:24;;;;;;;5.80;4.30;;;;;;;-0.29;69.56;100567.09;1774672;80;21225;-72
2021/03/21 01:53:57;;;;;;;18.45;6.47;;;;;;;-0.30;69.61;100555.77;1774688;80;21140;-71
2021/03/21 01:56:25;;;;;;;13.48;6.75;;;;;;;-0.33;69.65;100549.88;1746864;80;21219;-72
2021/03/21 01:59:02;;;;;;;8.18;6.10;;;;;;;-0.36;69.69;100542.22;1772990;80;21179;-72
2021/03/21 02:01:29;;;;;;;11.60;6.03;;;;;;;-0.40;69.78;100540.27;1697902;84;21163;-72
2021/03/21 02:03:55;;;;;;;9.85;6.05;;;;;;;-0.42;69.89;100540.00;1736548;80;21184;-72
2021/03/21 02:06:42;;;;;;;11.63;6.28;;;;;;;-0.44;69.96;100526.14;1697973;84;21183;-72
2021/03/21 02:09:41;;;;;;;12.05;7.25;;;;;;;-0.45;70.08;100512.20;1746438;80;22108;-72
2021/03/21 02:12:50;;;;;;;11.38;5.92;;;;;;;-0.45;70.15;100510.05;1719532;82;21708;-72
2021/03/21 02:15:37;;;;;;;10.32;6.17;;;;;;;-0.45;70.33;100502.19;1786216;80;21648;-72
2021/03/21 02:18:24;;;;;;;10.72;6.15;;;;;;;-0.47;70.44;100496.22;1780686;78;21620;-72
2021/03/21 02:21:14;;;;;;;11.55;6.45;;;;;;;-0.47;70.58;100494.91;1766916;78;21168;-72
2021/03/21 02:24:12;;;;;;;12.58;6.53;;;;;;;-0.49;70.70;100485.82;1784719;80;21191;-72
2021/03/21 02:27:11;;;;;;;12.60;6.50;;;;;;;-0.48;70.81;100482.73;1784693;80;21211;-72
2021/03/21 02:30:03;;;;;;;13.22;6.00;;;;;;;-0.45;70.92;100482.54;1774102;80;21147;-72
2021/03/21 02:32:34;;;;;;;11.75;6.42;;;;;;;-0.42;71.09;100474.52;1754992;80;21171;-72
2021/03/21 02:35:26;;;;;;;9.15;5.65;;;;;;;-0.42;71.16;100466.66;1751172;79;22594;-72
2021/03/21 02:38:15;;;;;;;13.70;6.75;;;;;;;-0.39;71.24;100462.52;1783670;80;21204;-72
2021/03/21 02:40:49;;;;;;;8.43;6.15;;;;;;;-0.39;71.32;100463.83;1761096;80;21160;-72
2021/03/21 02:43:33;;;;;;;13.95;6.55;;;;;;;-0.38;71.41;100455.02;1751857;81;21729;-72
2021/03/21 02:46:04;;;;;;;11.30;6.10;;;;;;;-0.37;71.50;100442.30;1750107;81;22003;-72
2021/03/21 02:48:37;;;;;;;11.30;6.53;;;;;;;-0.37;71.56;100447.06;1744134;81;21164;-72
2021/03/21 02:51:08;;;;;;;10.48;5.65;;;;;;;-0.35;71.62;100441.74;1768344;80;21196;-72
2021/03/21 02:53:42;;;;;;;9.65;6.15;;;;;;;-0.36;71.69;100421.72;1753016;80;21168;-72
2021/03/21 02:56:10;;;;;;;10.35;6.00;;;;;;;-0.34;71.72;100424.59;1763345;80;21191;-72
2021/03/21 02:58:43;;;;;;;9.55;5.28;;;;;;;-0.31;71.80;100414.38;1755854;80;21147;-72
2021/03/21 03:01:22;;;;;;;7.58;5.45;;;;;;;-0.33;71.85;100408.41;1754062;80;21172;-72
2021/03/21 03:03:51;;;;;;;8.93;5.83;;;;;;;-0.32;71.91;100408.79;1763961;80;22064;-72
2021/03/21 03:06:21;;;;;;;10.13;5.65;;;;;;;-0.32;71.98;100402.23;1730167;80;21443;-72
2021/03/21 03:08:52;;;;;;;9.85;5.53;;;;;;;-0.31;71.99;100394.73;1776232;79;21136;-72
2021/03/21 03:11:38;;;;;;;7.30;5.45;;;;;;;-0.30;72.01;100389.87;1785768;80;21120;-72
2021/03/21 03:14:06;;;;;;;9.43;5.50;;;;;;;-0.30;72.07;100388.55;1745492;81;21629;-72
2021/03/21 03:16:53;;;;;;;11.30;5.60;;;;;;;-0.29;72.07;100382.38;1756787;81;21616;-72
2021/03/21 03:19:41;;;;;;;8.85;5.58;;;;;;;-0.29;72.12;100375.84;1748505;81;21157;-72
2021/03/21 03:22:25;;;;;;;11.75;5.80;;;;;;;-0.30;72.14;100359.73;1742111;82;21175;-72
2021/03/21 03:25:09;;;;;;;7.37;5.10;;;;;;;-0.30;72.17;100361.89;1748026;80;21168;-72
2021/03/21 03:28:04;;;;;;;10.38;5.55;;;;;;;-0.30;72.17;100353.19;1742196;81;21192;-72
2021/03/21 03:30:47;;;;;;;8.58;5.03;;;;;;;-0.30;72.23;100353.19;1699473;84;21290;-72
2021/03/21 03:33:13;;;;;;;11.35;5.15;;;;;;;-0.30;72.26;100344.86;1707953;84;21175;-72
2021/03/21 03:35:39;;;;;;;8.08;5.40;;;;;;;-0.28;72.29;100344.77;1696611;83;21156;-72
2021/03/21 03:38:08;;;;;;;10.65;6.05;;;;;;;-0.26;72.30;100335.02;1696399;83;21613;-72
2021/03/21 03:40:40;;;;;;;7.58;5.20;;;;;;;-0.25;72.31;100356.35;1675970;84;21176;-72
2021/03/21 03:43:33;;;;;;;12.23;5.70;;;;;;;-0.25;72.33;100335.39;1689637;84;22146;-72
2021/03/21 03:46:22;;;;;;;12.53;5.75;;;;;;;-0.23;72.36;100338.73;1683974;84;21189;-72
2021/03/21 03:49:16;;;;;;;11.95;4.92;;;;;;;-0.24;72.38;100333.96;1708101;84;21146;-72
2021/03/21 03:52:26;;;;;;;7.37;4.78;;;;;;;-0.24;72.39;100327.41;1706574;84;21613;-72
2021/03/21 03:55:07;;;;;;;9.08;5.37;;;;;;;-0.24;72.43;100318.24;1706467;83;21172;-72
2021/03/21 03:57:59;;;;;;;7.92;4.75;;;;;;;-0.23;72.47;100320.39;1690476;83;21206;-72
2021/03/21 04:01:05;;;;;;;7.87;5.03;;;;;;;-0.25;72.50;100315.74;1681369;84;21190;-72
2021/03/21 04:03:46;;;;;;;12.65;5.97;;;;;;;-0.25;72.50;100313.12;1690494;84;21234;-72
2021/03/21 04:06:17;;;;;;;9.30;4.90;;;;;;;-0.25;72.56;100307.42;1721625;83;21514;-72
2021/03/21 04:08:59;;;;;;;8.88;5.40;;;;;;;-0.24;72.62;100302.98;1719107;83;21161;-72
2021/03/21 04:11:56;;;;;;;11.68;5.92;;;;;;;-0.21;72.64;100283.97;1810991;77;22224;-72
2021/03/21 04:14:33;;;;;;;8.23;5.33;;;;;;;-0.26;72.68;100291.78;1794266;79;21005;-72
2021/03/21 04:17:28;;;;;;;9.38;5.58;;;;;;;-0.26;72.72;100283.92;1704525;84;21213;-72
2021/03/21 04:20:11;;;;;;;10.98;6.90;;;;;;;-0.26;72.75;100282.61;1715348;82;21038;-72
2021/03/21 04:22:42;;;;;;;9.00;6.03;;;;;;;-0.27;72.83;100275.22;1783478;80;21132;-72
2021/03/21 04:25:14;;;;;;;10.28;5.53;;;;;;;-0.25;72.88;100275.13;1785330;80;21580;-72
2021/03/21 04:28:06;;;;;;;9.15;5.50;;;;;;;-0.24;72.91;100276.78;1786061;80;21124;-72
2021/03/21 04:30:38;;;;;;;7.50;4.87;;;;;;;-0.22;72.95;100272.30;1762570;80;21211;-72
2021/03/21 04:33:10;;;;;;;6.87;4.58;;;;;;;-0.22;73.00;100267.06;1754695;81;21597;-72
2021/03/21 04:35:40;;;;;;;8.53;5.42;;;;;;;-0.21;73.07;100263.50;1728730;81;21152;-72
2021/03/21 04:38:16;;;;;;;10.53;5.00;;;;;;;-0.21;73.09;100263.50;1755174;81;21192;-72
2021/03/21 04:40:42;;;;;;;8.48;5.50;;;;;;;-0.20;73.13;100257.30;1755208;80;21168;-72
2021/03/21 04:43:22;;;;;;;9.08;5.17;;;;;;;-0.19;73.20;100251.13;1755120;81;21368;-72
2021/03/21 04:45:55;;;;;;;8.70;5.85;;;;;;;-0.19;73.25;100247.19;1749260;81;21149;-72
2021/03/21 04:48:24;;;;;;;8.23;5.20;;;;;;;-0.18;73.30;100252.34;1762308;81;21183;-73
2021/03/21 04:51:12;;;;;;;8.40;4.83;;;;;;;-0.18;73.37;100235.31;1771035;80;21140;-72
2021/03/21 04:53:55;;;;;;;9.33;5.40;;;;;;;-0.19;73.43;100232.78;1766470;80;21197;-72
2021/03/21 04:56:38;;;;;;;11.45;5.95;;;;;;;-0.21;73.50;100234.18;1727193;81;22146;-73
2021/03/21 04:59:24;;;;;;;8.85;6.10;;;;;;;-0.21;73.59;100234.68;1760753;80;21192;-72
2021/03/21 05:02:12;;;;;;;11.88;6.33;;;;;;;-0.19;73.67;100231.47;1757363;80;21202;-73
2021/03/21 05:04:44;;;;;;;10.32;5.72;;;;;;;-0.19;73.72;100228.85;1774874;80;21155;-72
2021/03/21 05:07:42;;;;;;;13.78;6.12;;;;;;;-0.15;73.80;100229.01;1757242;81;21656;-73
2021/03/21 05:10:36;;;;;;;12.20;6.65;;;;;;;-0.15;73.90;100225.08;1757483;80;22533;-72
2021/03/21 05:13:20;;;;;;;9.50;6.55;;;;;;;-0.16;74.00;100222.08;1777723;80;21192;-72
2021/03/21 05:16:04;;;;;;;9.60;6.00;;;;;;;-0.15;74.10;100223.77;1779695;80;21627;-72
2021/03/21 05:18:41;;;;;;;9.83;6.53;;;;;;;-0.15;74.20;100213.28;1759440;80;21153;-72
2021/03/21 05:21:26;;;;;;;14.10;6.85;;;;;;;-0.16;74.29;100217.69;1751950;80;22072;-72
2021/03/21 05:24:06;;;;;;;13.85;6.40;;;;;;;-0.15;74.40;100202.80;1750432;80;22019;-72
2021/03/21 05:26:58;;;;;;;13.43;6.90;;;;;;;-0.14;74.52;100206.61;1751102;80;21159;-72
2021/03/21 05:29:46;;;;;;;13.53;7.12;;;;;;;-0.12;74.64;100199.97;1749702;80;21120;-72
2021/03/21 05:32:14;;;;;;;13.53;7.67;;;;;;;-0.10;74.72;100204.14;1768758;80;21129;-72
2021/03/21 05:34:41;;;;;;;12.05;6.47;;;;;;;-0.06;74.83;100196.91;1771945;80;21163;-73
2021/03/21 05:37:27;;;;;;;10.00;6.50;;;;;;;-0.05;74.93;100201.21;1776977;80;21258;-73
2021/03/21 05:40:41;;;;;;;13.80;6.83;;;;;;;-0.03;75.05;100190.14;1768849;80;21136;-73
2021/03/21 05:43:34;;;;;;;13.00;7.35;;;;;;;-0.01;75.16;100184.33;1749975;80;21149;-72
2021/03/21 05:46:47;;;;;;;14.03;6.97;;;;;;;0.00;75.27;100183.39;1749745;80;21164;-72
2021/03/21 05:49:44;;;;;;;10.28;6.40;;;;;;;0.02;75.36;100162.30;1752310;80;21542;-73
2021/03/21 05:52:37;;;;;;;11.08;7.17;;;;;;;0.05;75.47;100160.30;1746081;81;22150;-71
2021/03/21 05:55:20;;;;;;;14.53;7.35;;;;;;;0.10;75.56;100168.69;1750763;81;21207;-71
2021/03/21 05:58:18;;;;;;;12.30;6.90;;;;;;;0.12;75.67;100164.16;1729779;83;21194;-71
2021/03/21 06:01:19;;;;;;;11.22;6.95;;;;;;;0.14;75.74;100161.44;1744290;82;21134;-71
2021/03/21 06:04:11;;;;;;;13.72;6.92;;;;;;;0.15;75.84;100158.69;1764837;81;21119;-71
2021/03/21 06:06:54;;;;;;;13.25;7.80;;;;;;;0.19;75.90;100156.22;1783986;80;23727;-71
2021/03/21 06:09:44;;;;;;;11.03;7.17;;;;;;;0.18;76.00;100151.91;1727268;82;21617;-72
2021/03/21 06:12:34;;;;;;;12.03;7.60;;;;;;;0.21;76.11;100156.12;1754805;80;21195;-72
2021/03/21 06:15:47;;;;;;;11.10;7.10;;;;;;;0.24;76.17;100152.80;1731962;81;21180;-72
2021/03/21 06:18:48;;;;;;;13.80;7.25;;;;;;;0.27;76.29;100152.58;1740538;81;21112;-72
2021/03/21 06:21:44;;;;;;;12.50;7.05;;;;;;;0.30;76.39;100145.80;1759242;81;21258;-72
2021/03/21 06:24:39;;;;;;;13.70;8.15;;;;;;;0.33;76.45;100136.39;1756323;80;21198;-73
2021/03/21 06:27:16;;;;;;;14.68;7.65;;;;;;;0.39;76.54;100132.00;1737057;80;21132;-73
2021/03/21 06:30:13;;;;;;;12.05;7.05;;;;;;;0.42;76.59;100123.91;1739957;80;21668;-72
2021/03/21 06:33:28;;;;;;;14.63;8.70;;;;;;;0.45;76.66;100119.77;1740691;81;21648;-72
2021/03/21 06:36:31;;;;;;;11.78;7.53;;;;;;;0.47;76.76;100124.41;1748848;81;21676;-72
2021/03/21 06:39:36;;;;;;;14.55;7.87;;;;;;;0.48;76.83;100112.98;1759850;81;21164;-72
2021/03/21 06:42:35;;;;;;;15.05;7.15;;;;;;;0.52;76.93;100122.77;1750580;80;21180;-73
2021/03/21 06:45:46;;;;;;;11.48;8.03;;;;;;;0.56;76.98;100116.36;1742226;81;21192;-73
2021/03/21 06:48:30;;;;;;;16.05;8.75;;;;;;;0.61;77.03;100117.30;1733896;82;21562;-72
2021/03/21 06:51:41;;;;;;;15.48;8.23;;;;;;;0.67;77.11;100106.38;1729497;83;21363;-72
2021/03/21 06:54:46;;;;;;;10.95;7.80;;;;;;;0.68;77.19;100106.72;1729396;83;21205;-73
2021/03/21 06:57:46;;;;;;;15.60;8.35;;;;;;;0.69;77.28;100104.46;1729148;83;21169;-72
2021/03/21 07:00:42;;;;;;;14.50;7.58;;;;;;;0.75;77.35;100105.30;1757819;81;21159;-72
2021/03/21 07:03:52;;;;;;;13.75;8.88;;;;;;;0.84;77.41;100100.23;1739222;81;21672;-73
2021/03/21 07:06:38;;;;;;;11.10;7.00;;;;;;;0.95;77.45;100088.41;1737481;81;22133;-72
2021/03/21 07:09:36;;;;;;;12.73;8.28;;;;;;;1.03;77.50;100093.08;1748985;81;21160;-72
2021/03/21 07:12:31;;;;;;;14.70;10.60;;;;;;;1.08;77.57;100092.27;1738848;81;21141;-73
2021/03/21 07:15:38;;;;;;;14.00;8.75;;;;;;;1.11;77.59;100086.78;1748099;80;21588;-72
2021/03/21 07:18:26;;;;;;;12.63;8.10;;;;;;;1.20;77.66;100075.55;1748261;80;21602;-72
2021/03/21 07:21:23;;;;;;;12.90;8.90;;;;;;;1.23;77.72;100077.13;1762279;80;22282;-72
2021/03/21 07:24:19;;;;;;;13.32;8.53;;;;;;;1.19;77.77;100071.75;1748475;82;21203;-72
2021/03/21 07:27:16;;;;;;;15.08;9.00;;;;;;;1.17;77.87;100070.55;1748378;82;21152;-72
2021/03/21 07:29:52;;;;;;;11.73;8.18;;;;;;;1.18;77.91;100075.32;1762210;80;21612;-72
2021/03/21 07:32:44;;;;;;;13.70;8.85;;;;;;;1.18;77.99;100076.64;1758683;80;21148;-72
2021/03/21 07:35:30;;;;;;;16.97;9.80;;;;;;;1.20;78.04;100061.11;1748448;82;21222;-72
2021/03/21 07:38:30;;;;;;;13.38;8.83;;;;;;;1.20;78.11;100065.05;1748480;82;21175;-72
2021/03/21 07:41:30;;;;;;;12.03;9.03;;;;;;;1.18;78.20;100055.16;1756733;80;21135;-73
2021/03/21 07:44:17;;;;;;;13.70;9.15;;;;;;;1.14;78.29;100059.44;1758447;79;21151;-72
2021/03/21 07:46:55;;;;;;;16.55;11.45;;;;;;;1.14;78.36;100056.34;1759288;80;21139;-72
2021/03/21 07:49:56;;;;;;;17.10;10.30;;;;;;;1.16;78.41;100055.73;1735424;80;21229;-73
2021/03/21 07:52:34;;;;;;;12.00;9.05;;;;;;;1.21;78.47;100053.59;1757481;80;21132;-72
2021/03/21 07:55:31;;;;;;;15.08;9.93;;;;;;;1.25;78.57;100045.84;1787452;80;21428;-73
2021/03/21 07:58:18;;;;;;;13.75;9.13;;;;;;;1.26;78.62;100033.08;1787564;80;21148;-72
2021/03/21 08:00:45;;;;;;;15.13;10.30;;;;;;;1.25;78.72;100038.44;1762747;80;21544;-72
2021/03/21 08:03:29;;;;;;;12.93;8.83;;;;;;;1.25;78.82;100030.09;1766890;80;22256;-73
2021/03/21 08:05:56;;;;;;;12.00;9.20;;;;;;;1.27;78.91;100022.06;1764132;80;21140;-73
2021/03/21 08:08:28;;;;;;;16.23;10.08;;;;;;;1.27;79.04;100021.59;1787518;80;21613;-73
2021/03/21 08:11:02;;;;;;;16.17;10.82;;;;;;;1.28;79.11;100015.39;1787053;80;21137;-73
2021/03/21 08:13:41;;;;;;;52.35;29.67;;;;;;;1.28;79.21;100019.81;1787185;80;21159;-73
2021/03/21 08:16:15;;;;;;;46.08;31.48;;;;;;;1.28;79.33;100011.45;1787234;80;21198;-73
2021/03/21 08:18:43;;;;;;;20.02;14.98;;;;;;;1.33;79.42;100015.05;1774336;80;21171;-73
2021/03/21 08:21:19;;;;;;;24.23;15.78;;;;;;;1.39;79.49;100006.20;1758538;80;21157;-73
2021/03/21 08:23:48;;;;;;;34.90;18.85;;;;;;;1.46;79.55;100008.70;1778375;80;21558;-73
2021/03/21 08:26:16;;;;;;;46.28;23.67;;;;;;;1.54;79.65;100000.68;1787291;80;21139;-73
2021/03/21 08:29:13;;;;;;;39.05;22.22;;;;;;;1.57;79.72;99994.70;1787222;80;21374;-73
2021/03/21 08:32:02;;;;;;;36.53;17.30;;;;;;;1.65;79.76;99996.72;1786098;80;21489;-73
2021/03/21 08:34:43;;;;;;;39.47;20.20;;;;;;;1.76;79.84;99990.12;1772396;80;21168;-73
2021/03/21 08:37:25;;;;;;;41.08;19.70;;;;;;;1.71;79.92;99982.60;1787325;80;21211;-73
2021/03/21 08:40:18;;;;;;;24.90;14.35;;;;;;;1.69;80.04;99986.33;1768080;80;21140;-73
2021/03/21 08:42:45;;;;;;;29.02;16.65;;;;;;;1.69;80.08;99972.67;1787298;80;21553;-73
2021/03/21 08:45:28;;;;;;;21.52;11.25;;;;;;;1.72;80.16;99970.30;1769339;80;21180;-73
2021/03/21 08:48:15;;;;;;;12.55;8.60;;;;;;;1.76;80.22;99977.79;1755901;81;21153;-73
2021/03/21 08:50:43;;;;;;;14.40;8.80;;;;;;;1.86;80.27;99979.22;1756704;80;21741;-73
2021/03/21 08:53:35;;;;;;;13.68;9.33;;;;;;;1.87;80.31;99967.72;1726439;81;21158;-73
2021/03/21 08:56:30;;;;;;;15.85;10.48;;;;;;;1.87;80.36;99967.72;1756152;81;22069;-73
2021/03/21 08:59:13;;;;;;;14.60;9.80;;;;;;;1.86;80.41;99961.66;1758433;80;21219;-73
2021/03/21 09:01:41;;;;;;;13.68;10.00;;;;;;;1.93;80.48;99956.72;1773401;80;21170;-73
2021/03/21 09:04:15;;;;;;;12.50;9.95;;;;;;;1.98;80.53;99951.91;1787440;80;21150;-73
2021/03/21 09:06:46;;;;;;;13.60;8.68;;;;;;;2.04;80.56;99943.53;1750450;81;21175;-73
2021/03/21 09:09:29;;;;;;;14.30;10.20;;;;;;;2.11;80.60;99945.97;1722469;83;21216;-73
2021/03/21 09:12:01;;;;;;;14.18;10.03;;;;;;;2.17;80.64;99948.12;1720873;83;21156;-73
2021/03/21 09:14:32;;;;;;;11.15;8.80;;;;;;;2.22;80.71;99945.92;1762871;80;21148;-73
2021/03/21 09:17:05;;;;;;;14.73;10.90;;;;;;;2.28;80.73;99941.96;1747945;81;21208;-73
2021/03/21 09:19:36;;;;;;;16.30;11.80;;;;;;;2.36;80.80;99942.97;1783611;80;21176;-73
2021/03/21 09:22:08;;;;;;;10.20;7.55;;;;;;;2.49;80.85;99935.73;1787557;80;21327;-73
2021/03/21 09:24:37;;;;;;;9.70;7.37;;;;;;;2.59;80.88;99941.52;1752658;80;21168;-73
2021/03/21 09:27:15;;;;;;;13.90;8.43;;;;;;;2.65;80.92;99930.45;1787541;80;21136;-73
2021/03/21 09:29:43;;;;;;;10.95;8.00;;;;;;;2.64;80.96;99934.08;1777870;80;21227;-73
2021/03/21 09:32:19;;;;;;;11.10;7.83;;;;;;;2.66;80.99;99929.50;1756052;80;21173;-73
2021/03/21 09:35:20;;;;;;;11.28;7.80;;;;;;;2.69;81.05;99931.87;1756704;81;21236;-73
2021/03/21 09:37:46;;;;;;;10.15;6.72;;;;;;;2.79;81.10;99931.42;1762380;79;21501;-73
2021/03/21 09:40:27;;;;;;;9.55;7.00;;;;;;;2.89;81.17;99926.55;1773010;80;21180;-73
2021/03/21 09:42:53;;;;;;;10.48;7.35;;;;;;;2.97;81.19;99925.89;1744900;80;21181;-73
2021/03/21 09:45:19;;;;;;;9.98;7.37;;;;;;;2.96;81.25;99929.00;1748546;80;21157;-74
2021/03/21 09:48:00;;;;;;;12.43;9.45;;;;;;;2.99;81.25;99930.55;1725242;83;21213;-73
2021/03/21 09:50:45;;;;;;;;;;;;;;;3.07;81.30;99926.75;1793129;78;21203;-73
2021/03/21 09:53:46;;;;;;;14.58;8.90;;;;;;;3.12;81.31;99927.20;1828941;78;20267;-74
2021/03/21 09:56:51;;;;;;;9.23;6.70;;;;;;;3.19;81.33;99927.48;1829212;78;21119;-74
2021/03/21 09:59:49;;;;;;;8.33;6.60;;;;;;;3.26;81.39;99920.23;1819783;78;21132;-74
2021/03/21 10:02:43;;;;;;;9.58;7.08;;;;;;;3.34;81.41;99918.24;1787258;80;21164;-74
2021/03/21 10:05:35;;;;;;;10.00;7.22;;;;;;;3.44;81.44;99913.81;1775472;80;21191;-74
2021/03/21 10:08:40;;;;;;;9.90;7.58;;;;;;;3.57;81.46;99920.13;1765147;80;21185;-74
2021/03/21 10:11:08;;;;;;;8.80;6.58;;;;;;;3.67;81.49;99920.97;1756930;80;21576;-74
2021/03/21 10:13:40;;;;;;;34.85;16.20;;;;;;;3.75;81.49;99915.37;1756295;81;21150;-74
2021/03/21 10:16:27;;;;;;;11.22;8.45;;;;;;;3.85;81.53;99918.84;1778778;80;21206;-74
2021/03/21 10:19:07;;;;;;;8.63;6.87;;;;;;;4.03;81.57;99921.61;1774703;78;21175;-73
2021/03/21 10:21:39;;;;;;;17.42;13.05;;;;;;;4.03;81.57;99923.77;1765639;80;21219;-73
2021/03/21 10:24:24;;;;;;;11.05;8.70;;;;;;;3.98;81.58;99919.86;1755700;81;21162;-73
2021/03/21 10:30:29;;;;;;;17.48;10.15;;;;;;;4.11;81.63;99924.39;1814690;77;22710;-74
2021/03/21 10:33:04;;;;;;;19.32;11.15;;;;;;;4.02;81.61;99927.84;1780942;80;21592;-74
2021/03/21 10:35:38;;;;;;;20.08;10.70;;;;;;;3.96;81.62;99931.05;1753767;80;21996;-73
2021/03/21 10:38:08;;;;;;;15.55;9.35;;;;;;;3.89;81.62;99928.14;1768881;80;21195;-74
2021/03/21 10:40:39;;;;;;;18.10;10.45;;;;;;;3.88;81.65;99927.78;1758132;80;21127;-73
2021/03/21 10:43:18;;;;;;;23.45;12.80;;;;;;;3.88;81.66;99919.04;1752799;81;21140;-74
2021/03/21 10:45:48;;;;;;;17.60;9.80;;;;;;;3.87;81.67;99918.71;1756077;81;26042;-74
2021/03/21 10:48:26;;;;;;;16.30;10.65;;;;;;;3.85;81.71;99918.00;1752225;81;22127;-74
2021/03/21 10:51:09;;;;;;;75.12;24.92;;;;;;;3.84;81.72;99915.01;1751507;81;21611;-73
2021/03/21 10:53:38;;;;;;;60.33;31.57;;;;;;;3.86;81.73;99906.48;1754189;81;21135;-73
2021/03/21 10:56:21;;;;;;;56.53;35.73;;;;;;;3.91;81.76;99907.72;1756741;81;21126;-73
2021/03/21 10:58:55;;;;;;;63.95;38.63;;;;;;;3.96;81.80;99903.36;1753427;81;21183;-72
2021/03/21 11:01:25;;;;;;;33.73;21.77;;;;;;;4.00;81.80;99908.70;1739143;81;21261;-73
2021/03/21 11:04:22;;;;;;;29.55;20.52;;;;;;;4.01;81.84;99900.63;1750126;80;26649;-73
2021/03/21 11:07:11;;;;;;;27.40;15.20;;;;;;;4.00;81.87;99910.02;1744067;81;21203;-73
2021/03/21 11:10:00;;;;;;;16.05;9.18;;;;;;;4.07;81.93;99904.53;1734326;81;22838;-73
2021/03/21 11:12:37;;;;;;;25.05;11.78;;;;;;;4.14;81.94;99897.72;1737561;81;21663;-73
2021/03/21 11:15:33;;;;;;;18.32;9.68;;;;;;;4.17;81.99;99898.75;1747392;81;22104;-73
2021/03/21 11:18:19;;;;;;;17.75;9.18;;;;;;;4.23;82.02;99902.13;1745603;80;21147;-73
2021/03/21 11:20:45;;;;;;;21.93;12.13;;;;;;;4.28;82.05;99897.27;1741891;81;21164;-73
2021/03/21 11:23:20;;;;;;;13.98;9.78;;;;;;;4.33;82.06;99904.75;1743811;81;21199;-73
2021/03/21 11:25:46;;;;;;;28.85;19.27;;;;;;;4.30;82.09;99892.67;1726224;81;21786;-73
2021/03/21 11:28:37;;;;;;;33.02;23.60;;;;;;;4.32;82.13;99892.06;1734075;81;22065;-74
2021/03/21 11:31:05;;;;;;;17.60;12.47;;;;;;;4.44;82.15;99890.91;1751187;81;21151;-73
2021/03/21 11:33:37;;;;;;;18.67;11.43;;;;;;;4.52;82.17;99888.39;1755334;81;21183;-73
2021/03/21 11:36:26;;;;;;;23.65;14.03;;;;;;;4.56;82.17;99888.09;1738623;81;21178;-74
2021/03/21 11:38:53;;;;;;;28.02;15.72;;;;;;;4.66;82.18;99893.69;1741722;81;26778;-73
2021/03/21 11:41:30;;;;;;;15.05;9.30;;;;;;;4.73;82.21;99887.33;1740128;81;21176;-72
2021/03/21 11:44:21;;;;;;;10.93;7.20;;;;;;;4.74;82.22;99882.41;1739684;81;21777;-73
2021/03/21 11:46:50;;;;;;;13.00;7.25;;;;;;;4.72;82.22;99881.70;1754793;81;21194;-73
2021/03/21 11:49:17;;;;;;;13.48;8.20;;;;;;;4.72;82.26;99880.38;1754530;81;21604;-73
2021/03/21 11:51:45;;;;;;;30.72;14.40;;;;;;;4.68;82.28;99877.71;1721255;81;21143;-73
2021/03/21 11:54:18;;;;;;;25.57;12.82;;;;;;;4.67;82.30;99875.55;1731357;81;21140;-73
2021/03/21 11:57:01;;;;;;;19.35;13.65;;;;;;;4.72;82.33;99883.02;1751365;81;21156;-73
2021/03/21 11:59:49;;;;;;;29.40;15.18;;;;;;;4.72;82.32;99876.41;1753339;81;21206;-72
2021/03/21 12:02:59;;;;;;;32.70;16.95;;;;;;;4.67;82.34;99879.52;1757376;81;21143;-73
2021/03/21 12:05:32;;;;;;;22.62;14.60;;;;;;;4.69;82.35;99878.03;1747203;81;21203;-73
2021/03/21 12:08:24;;;;;;;19.87;10.78;;;;;;;4.70;82.37;99882.34;1753759;81;22131;-73
2021/03/21 12:11:29;;;;;;;14.13;6.85;;;;;;;4.80;82.42;99885.77;1853090;77;22679;-72
2021/03/21 12:14:20;;;;;;;15.60;8.78;;;;;;;4.79;82.46;99885.42;1797438;78;21596;-72
2021/03/21 12:16:46;;;;;;;14.70;6.75;;;;;;;4.88;82.47;99888.53;1810795;78;21254;-73
2021/03/21 12:19:34;;;;;;;21.05;7.33;;;;;;;4.94;82.47;99890.58;1818596;78;21131;-73
2021/03/21 12:22:23;;;;;;;39.83;12.15;;;;;;;4.94;82.49;99886.61;1822884;78;21155;-73
2021/03/21 12:24:55;;;;;;;61.77;19.07;;;;;;;4.97;82.50;99877.91;1805792;78;21631;-73
2021/03/21 12:27:33;;;;;;;31.62;10.35;;;;;;;5.00;82.55;99880.73;1789622;80;21669;-73
2021/03/21 12:30:16;;;;;;;91.10;19.42;;;;;;;5.05;82.55;99878.49;1804379;78;21199;-72
2021/03/21 12:32:48;;;;;;;45.88;13.10;;;;;;;5.08;82.55;99878.20;1790243;78;21161;-73